createdAt,value
2018-09-16T00:01:03.813Z,13.70
2018-09-16T00:03:32.254Z,13.70
2018-09-16T00:06:00.817Z,13.70
2018-09-16T00:08:29.392Z,13.60
2018-09-16T00:10:57.900Z,13.60
2018-09-16T00:13:26.495Z,13.60
2018-09-16T00:15:55.056Z,13.50
2018-09-16T00:18:23.605Z,13.50
2018-09-16T00:20:52.158Z,13.50
2018-09-16T00:23:20.592Z,13.50
2018-09-16T00:25:49.197Z,13.40
2018-09-16T00:28:17.649Z,13.40
2018-09-16T00:30:46.116Z,13.40
2018-09-16T00:33:14.618Z,13.30
2018-09-16T00:35:43.052Z,13.30
2018-09-16T00:38:11.516Z,13.20
2018-09-16T00:40:39.964Z,13.20
2018-09-16T00:43:08.416Z,13.20
2018-09-16T00:45:36.852Z,13.20
2018-09-16T00:48:05.405Z,13.10
2018-09-16T00:50:33.878Z,13.10
2018-09-16T00:53:02.314Z,13.10
2018-09-16T00:55:30.788Z,13.00
2018-09-16T00:57:59.225Z,13.00
2018-09-16T01:00:27.666Z,13.00
2018-09-16T01:02:56.106Z,12.90
2018-09-16T01:05:24.551Z,13.00
2018-09-16T01:07:53.080Z,12.90
2018-09-16T01:10:21.523Z,12.90
2018-09-16T01:12:49.978Z,12.90
2018-09-16T01:15:18.504Z,12.90
2018-09-16T01:17:51.777Z,12.80
2018-09-16T01:20:20.317Z,12.80
2018-09-16T01:22:48.869Z,12.80
2018-09-16T01:25:17.315Z,12.80
2018-09-16T01:27:45.819Z,12.80
2018-09-16T01:30:14.295Z,12.80
2018-09-16T01:32:42.855Z,12.70
2018-09-16T01:35:11.309Z,12.80
2018-09-16T01:37:45.102Z,12.80
2018-09-16T01:40:13.658Z,12.70
2018-09-16T01:42:42.123Z,12.70
2018-09-16T01:45:10.609Z,12.70
2018-09-16T01:47:39.053Z,12.70
2018-09-16T01:50:07.521Z,12.70
2018-09-16T01:52:35.976Z,12.70
2018-09-16T01:55:04.494Z,12.70
2018-09-16T01:57:32.930Z,12.70
2018-09-16T02:00:01.381Z,12.60
2018-09-16T02:02:29.850Z,12.60
2018-09-16T02:04:58.387Z,12.60
2018-09-16T02:07:26.837Z,12.60
2018-09-16T02:09:55.351Z,12.60
2018-09-16T02:12:23.799Z,12.60
2018-09-16T02:14:52.258Z,12.50
2018-09-16T02:17:20.786Z,12.50
2018-09-16T02:19:49.287Z,12.50
2018-09-16T02:22:17.827Z,12.40
2018-09-16T02:24:46.288Z,12.40
2018-09-16T02:27:14.739Z,12.40
2018-09-16T02:29:43.251Z,12.40
2018-09-16T02:32:11.714Z,12.40
2018-09-16T02:34:40.205Z,12.30
2018-09-16T02:37:08.903Z,12.40
2018-09-16T02:39:37.431Z,12.30
2018-09-16T02:42:06.055Z,12.30
2018-09-16T02:44:34.511Z,12.30
2018-09-16T02:47:02.951Z,12.30
2018-09-16T02:49:31.387Z,12.30
2018-09-16T02:51:59.892Z,12.30
2018-09-16T02:54:28.399Z,12.30
2018-09-16T02:56:56.897Z,12.20
2018-09-16T02:59:25.444Z,12.20
2018-09-16T03:01:53.912Z,12.20
2018-09-16T03:04:22.382Z,12.20
2018-09-16T03:06:50.888Z,12.20
2018-09-16T03:09:19.288Z,12.20
2018-09-16T03:11:47.726Z,12.10
2018-09-16T03:14:16.200Z,12.20
2018-09-16T03:16:44.631Z,12.20
2018-09-16T03:19:13.099Z,12.20
2018-09-16T03:21:41.550Z,12.20
2018-09-16T03:24:10.132Z,12.20
2018-09-16T03:26:38.616Z,12.10
2018-09-16T03:29:07.186Z,12.20
2018-09-16T03:31:35.608Z,12.20
2018-09-16T03:34:04.070Z,12.10
2018-09-16T03:36:32.510Z,12.10
2018-09-16T03:39:01.331Z,12.10
2018-09-16T03:41:29.782Z,12.10
2018-09-16T03:43:58.236Z,12.00
2018-09-16T03:46:26.679Z,12.00
2018-09-16T03:48:55.131Z,12.00
2018-09-16T03:51:23.580Z,12.00
2018-09-16T03:53:52.110Z,11.90
2018-09-16T03:56:20.681Z,11.90
2018-09-16T03:58:49.315Z,11.80
2018-09-16T04:01:17.829Z,11.80
2018-09-16T04:03:46.336Z,11.70
2018-09-16T04:06:14.803Z,11.70
2018-09-16T04:08:43.344Z,11.70
2018-09-16T04:11:11.876Z,11.70
2018-09-16T04:13:40.625Z,11.70
2018-09-16T04:16:09.055Z,11.70
2018-09-16T04:18:37.589Z,11.60
2018-09-16T04:21:06.481Z,11.70
2018-09-16T04:23:47.374Z,11.70
2018-09-16T04:26:16.959Z,11.60
2018-09-16T04:28:45.846Z,11.60
2018-09-16T04:31:15.323Z,11.60
2018-09-16T04:33:43.770Z,11.60
2018-09-16T04:36:12.415Z,11.60
2018-09-16T04:38:40.855Z,11.60
2018-09-16T04:41:09.328Z,11.60
2018-09-16T04:43:37.942Z,11.60
2018-09-16T04:46:06.445Z,11.60
2018-09-16T04:48:34.891Z,11.60
2018-09-16T04:51:03.327Z,11.60
2018-09-16T04:53:31.789Z,11.60
2018-09-16T04:56:00.381Z,11.60
2018-09-16T04:58:28.835Z,11.60
2018-09-16T05:00:57.303Z,11.60
2018-09-16T05:03:25.726Z,11.70
2018-09-16T05:05:54.157Z,11.70
2018-09-16T05:08:22.583Z,11.70
2018-09-16T05:10:51.047Z,11.70
2018-09-16T05:13:19.477Z,11.70
2018-09-16T05:15:47.885Z,11.70
2018-09-16T05:18:16.361Z,11.70
2018-09-16T05:20:44.878Z,11.60
2018-09-16T05:23:13.345Z,11.70
2018-09-16T05:25:41.807Z,11.60
2018-09-16T05:28:10.289Z,11.70
2018-09-16T05:30:38.709Z,11.70
2018-09-16T05:33:07.267Z,11.70
2018-09-16T05:35:35.724Z,11.70
2018-09-16T05:38:04.178Z,11.70
2018-09-16T05:40:32.679Z,11.70
2018-09-16T05:43:01.113Z,11.70
2018-09-16T05:45:29.673Z,11.70
2018-09-16T05:47:58.145Z,11.70
2018-09-16T05:50:26.591Z,11.70
2018-09-16T05:52:55.248Z,11.70
2018-09-16T05:55:23.651Z,11.70
2018-09-16T05:57:52.215Z,11.70
2018-09-16T06:00:21.771Z,11.70
2018-09-16T06:02:51.330Z,11.70
2018-09-16T06:05:19.785Z,11.70
2018-09-16T06:07:48.269Z,11.70
2018-09-16T06:10:16.840Z,11.70
2018-09-16T06:12:45.300Z,11.70
2018-09-16T06:15:14.035Z,11.70
2018-09-16T06:17:42.525Z,11.70
2018-09-16T06:20:11.153Z,11.70
2018-09-16T06:22:39.699Z,11.80
2018-09-16T06:25:08.791Z,11.80
2018-09-16T06:27:38.169Z,11.80
2018-09-16T06:30:06.871Z,11.90
2018-09-16T06:32:35.478Z,11.90
2018-09-16T06:35:04.059Z,12.00
2018-09-16T06:37:32.528Z,12.10
2018-09-16T06:40:00.992Z,12.20
2018-09-16T06:42:29.431Z,12.30
2018-09-16T06:44:57.982Z,12.40
2018-09-16T06:47:26.510Z,12.40
2018-09-16T06:49:55.274Z,12.50
2018-09-16T06:52:23.700Z,12.60
2018-09-16T06:54:52.182Z,12.70
2018-09-16T06:57:20.640Z,12.80
2018-09-16T06:59:49.384Z,12.90
2018-09-16T07:02:17.838Z,13.00
2018-09-16T07:04:47.116Z,13.00
2018-09-16T07:07:15.600Z,13.20
2018-09-16T07:09:44.125Z,13.20
2018-09-16T07:12:12.557Z,13.40
2018-09-16T07:14:41.094Z,13.50
2018-09-16T07:17:09.604Z,13.60
2018-09-16T07:19:38.218Z,13.70
2018-09-16T07:22:06.773Z,13.80
2018-09-16T07:24:35.278Z,13.90
2018-09-16T07:27:03.792Z,14.10
2018-09-16T07:29:32.226Z,14.20
2018-09-16T07:32:00.824Z,14.30
2018-09-16T07:34:29.347Z,14.40
2018-09-16T07:36:58.045Z,14.50
2018-09-16T07:39:26.523Z,14.60
2018-09-16T07:41:54.989Z,14.70
2018-09-16T07:44:23.450Z,14.70
2018-09-16T07:46:52.074Z,14.80
2018-09-16T07:49:20.604Z,14.90
2018-09-16T07:51:49.100Z,15.00
2018-09-16T07:54:17.562Z,15.10
2018-09-16T07:56:46.023Z,15.20
2018-09-16T07:59:14.486Z,15.30
2018-09-16T08:01:42.943Z,15.40
2018-09-16T08:04:11.568Z,15.60
2018-09-16T08:06:39.990Z,15.70
2018-09-16T08:09:09.312Z,15.80
2018-09-16T08:11:37.782Z,15.90
2018-09-16T08:14:06.270Z,16.10
2018-09-16T08:16:34.816Z,16.20
2018-09-16T08:19:03.404Z,16.40
2018-09-16T08:21:31.830Z,16.50
2018-09-16T08:24:00.469Z,16.60
2018-09-16T08:26:29.014Z,16.80
2018-09-16T08:28:57.466Z,16.90
2018-09-16T08:31:26.091Z,17.10
2018-09-16T08:33:54.606Z,17.20
2018-09-16T08:36:23.122Z,17.30
2018-09-16T08:38:51.618Z,17.40
2018-09-16T08:41:20.184Z,17.40
2018-09-16T08:43:48.687Z,17.50
2018-09-16T08:46:17.186Z,17.60
2018-09-16T08:48:45.653Z,17.70
2018-09-16T08:51:14.104Z,17.80
2018-09-16T08:53:42.574Z,17.90
2018-09-16T08:56:11.200Z,18.00
2018-09-16T08:58:39.678Z,18.00
2018-09-16T09:01:08.271Z,18.20
2018-09-16T09:03:36.721Z,18.30
2018-09-16T09:06:05.227Z,18.40
2018-09-16T09:08:33.781Z,18.60
2018-09-16T09:11:02.613Z,18.70
2018-09-16T09:13:31.061Z,18.90
2018-09-16T09:15:59.517Z,19.10
2018-09-16T09:18:27.956Z,19.30
2018-09-16T09:20:56.402Z,19.50
2018-09-16T09:23:24.846Z,19.60
2018-09-16T09:25:53.304Z,19.80
2018-09-16T09:28:21.808Z,19.90
2018-09-16T09:30:50.325Z,20.00
2018-09-16T09:33:19.048Z,20.10
2018-09-16T09:35:47.649Z,20.20
2018-09-16T09:38:16.217Z,20.30
2018-09-16T09:40:44.675Z,20.50
2018-09-16T09:43:13.283Z,20.70
2018-09-16T09:45:41.881Z,20.80
2018-09-16T09:48:10.380Z,21.00
2018-09-16T09:50:38.809Z,21.10
2018-09-16T09:53:07.676Z,21.30
2018-09-16T09:55:36.142Z,21.40
2018-09-16T09:58:04.674Z,21.30
2018-09-16T10:00:38.453Z,21.30
2018-09-16T10:03:06.935Z,21.40
2018-09-16T10:05:35.376Z,21.40
2018-09-16T10:08:03.857Z,21.60
2018-09-16T10:10:32.422Z,21.60
2018-09-16T10:13:00.974Z,21.70
2018-09-16T10:15:29.419Z,21.90
2018-09-16T10:17:57.902Z,21.90
2018-09-16T10:20:26.323Z,21.90
2018-09-16T10:22:54.781Z,22.00
2018-09-16T10:25:23.416Z,22.10
2018-09-16T10:27:51.852Z,22.20
2018-09-16T10:30:20.799Z,22.20
2018-09-16T10:32:49.271Z,22.40
2018-09-16T10:35:17.706Z,22.50
2018-09-16T10:37:46.327Z,22.40
2018-09-16T10:40:14.875Z,22.50
2018-09-16T10:42:43.342Z,22.30
2018-09-16T10:45:11.918Z,22.40
2018-09-16T10:47:40.440Z,22.40
2018-09-16T10:50:09.155Z,22.40
2018-09-16T10:52:37.704Z,22.50
2018-09-16T10:55:06.370Z,22.50
2018-09-16T10:57:34.832Z,22.70
2018-09-16T11:00:03.482Z,22.80
2018-09-16T11:02:31.937Z,23.00
2018-09-16T11:05:00.414Z,23.00
2018-09-16T11:07:28.887Z,23.00
2018-09-16T11:09:57.331Z,23.20
2018-09-16T11:12:25.930Z,23.20
2018-09-16T11:14:54.364Z,23.20
2018-09-16T11:17:22.851Z,23.50
2018-09-16T11:19:51.390Z,23.50
2018-09-16T11:22:19.906Z,23.50
2018-09-16T11:24:48.543Z,23.70
2018-09-16T11:27:17.086Z,23.90
2018-09-16T11:29:45.649Z,23.80
2018-09-16T11:32:14.240Z,23.90
2018-09-16T11:34:42.826Z,24.20
2018-09-16T11:37:11.367Z,24.20
2018-09-16T11:39:39.908Z,24.40
2018-09-16T11:42:08.460Z,24.60
2018-09-16T11:44:37.101Z,24.70
2018-09-16T11:47:05.919Z,24.80
2018-09-16T11:49:34.368Z,25.00
2018-09-16T11:52:02.971Z,25.10
2018-09-16T11:54:31.427Z,24.90
2018-09-16T11:56:59.889Z,25.00
2018-09-16T11:59:28.375Z,25.10
2018-09-16T12:01:56.937Z,25.20
2018-09-16T12:04:25.368Z,25.10
2018-09-16T12:06:53.844Z,24.80
2018-09-16T12:09:22.309Z,24.50
2018-09-16T12:11:50.793Z,24.60
2018-09-16T12:14:19.464Z,24.70
2018-09-16T12:16:47.939Z,24.80
2018-09-16T12:19:16.490Z,24.80
2018-09-16T12:21:45.072Z,24.80
2018-09-16T12:24:13.567Z,25.00
2018-09-16T12:26:41.985Z,25.10
2018-09-16T12:29:10.458Z,25.00
2018-09-16T12:31:38.903Z,25.10
2018-09-16T12:34:07.347Z,25.30
2018-09-16T12:36:35.864Z,25.20
2018-09-16T12:39:06.320Z,25.20
2018-09-16T12:41:34.780Z,25.20
2018-09-16T12:44:03.327Z,25.30
2018-09-16T12:46:31.805Z,25.40
2018-09-16T12:49:00.366Z,25.50
2018-09-16T12:51:28.838Z,25.60
2018-09-16T12:53:57.423Z,25.70
2018-09-16T12:56:26.026Z,25.80
2018-09-16T12:58:54.533Z,25.70
2018-09-16T13:01:22.983Z,25.60
2018-09-16T13:03:51.469Z,25.70
2018-09-16T13:06:20.063Z,25.90
2018-09-16T13:08:48.547Z,26.10
2018-09-16T13:11:17.013Z,26.20
2018-09-16T13:13:45.583Z,26.40
2018-09-16T13:16:13.977Z,26.60
2018-09-16T13:18:42.475Z,26.50
2018-09-16T13:21:10.973Z,26.30
2018-09-16T13:23:39.431Z,26.20
2018-09-16T13:26:07.932Z,25.90
2018-09-16T13:28:36.412Z,25.70
2018-09-16T13:31:04.922Z,25.70
2018-09-16T13:33:33.395Z,25.60
2018-09-16T13:36:01.991Z,25.50
2018-09-16T13:38:30.494Z,25.40
2018-09-16T13:40:58.972Z,25.40
2018-09-16T13:43:27.480Z,25.30
2018-09-16T13:45:55.971Z,25.30
2018-09-16T13:48:24.449Z,25.40
2018-09-16T13:50:52.911Z,25.40
2018-09-16T13:53:21.379Z,25.40
2018-09-16T13:55:49.894Z,25.40
2018-09-16T13:58:18.374Z,25.40
2018-09-16T14:00:46.911Z,25.40
2018-09-16T14:03:15.304Z,25.50
2018-09-16T14:05:43.947Z,25.50
2018-09-16T14:08:12.412Z,25.40
2018-09-16T14:10:40.862Z,25.10
2018-09-16T14:13:09.324Z,25.10
2018-09-16T14:15:37.801Z,25.10
2018-09-16T14:18:06.292Z,25.20
2018-09-16T14:20:34.743Z,25.20
2018-09-16T14:23:03.190Z,25.20
2018-09-16T14:25:31.695Z,25.20
2018-09-16T14:28:00.198Z,25.10
2018-09-16T14:30:28.672Z,25.20
2018-09-16T14:32:57.104Z,25.10
2018-09-16T14:35:25.654Z,25.10
2018-09-16T14:37:54.078Z,25.10
2018-09-16T14:40:22.666Z,25.10
2018-09-16T14:42:51.219Z,25.10
2018-09-16T14:45:19.654Z,25.10
2018-09-16T14:47:48.090Z,25.10
2018-09-16T14:50:16.597Z,25.00
2018-09-16T14:52:45.198Z,24.90
2018-09-16T14:55:13.666Z,24.90
2018-09-16T14:57:42.167Z,24.90
2018-09-16T15:00:10.667Z,24.80
2018-09-16T15:02:39.152Z,24.70
2018-09-16T15:05:07.658Z,24.60
2018-09-16T15:07:36.125Z,24.60
2018-09-16T15:10:04.597Z,24.60
2018-09-16T15:12:33.128Z,24.60
2018-09-16T15:15:01.571Z,24.60
2018-09-16T15:17:30.017Z,24.60
2018-09-16T15:19:58.458Z,24.60
2018-09-16T15:22:26.904Z,24.50
2018-09-16T15:24:55.358Z,24.30
2018-09-16T15:27:23.855Z,24.30
2018-09-16T15:29:52.348Z,24.20
2018-09-16T15:32:20.778Z,24.10
2018-09-16T15:34:49.601Z,23.90
2018-09-16T15:37:18.099Z,23.80
2018-09-16T15:39:46.559Z,23.80
2018-09-16T15:42:15.138Z,23.70
2018-09-16T15:44:43.658Z,23.60
2018-09-16T15:47:12.145Z,23.60
2018-09-16T15:49:40.641Z,23.50
2018-09-16T15:52:09.201Z,23.50
2018-09-16T15:54:37.727Z,23.50
2018-09-16T15:57:06.218Z,23.50
2018-09-16T15:59:34.658Z,23.40
2018-09-16T16:02:03.117Z,23.40
2018-09-16T16:04:31.592Z,23.40
2018-09-16T16:07:00.091Z,23.40
2018-09-16T16:09:28.548Z,23.40
2018-09-16T16:11:57.041Z,23.40
2018-09-16T16:14:25.530Z,23.40
2018-09-16T16:16:54.028Z,23.40
2018-09-16T16:19:22.469Z,23.40
2018-09-16T16:21:50.985Z,23.30
2018-09-16T16:24:19.450Z,23.30
2018-09-16T16:26:47.923Z,23.30
2018-09-16T16:29:16.509Z,23.10
2018-09-16T16:31:44.990Z,23.10
2018-09-16T16:34:13.542Z,23.00
2018-09-16T16:36:41.949Z,23.00
2018-09-16T16:39:11.247Z,23.00
2018-09-16T16:41:39.719Z,22.90
2018-09-16T16:44:08.407Z,22.90
2018-09-16T16:46:36.873Z,22.90
2018-09-16T16:49:05.703Z,22.80
2018-09-16T16:51:35.300Z,22.70
2018-09-16T16:54:03.873Z,22.60
2018-09-16T16:56:32.344Z,22.60
2018-09-16T16:59:00.777Z,22.50
2018-09-16T17:01:29.246Z,22.40
2018-09-16T17:03:57.730Z,22.30
2018-09-16T17:06:26.220Z,22.20
2018-09-16T17:08:54.690Z,22.20
2018-09-16T17:11:23.163Z,22.10
2018-09-16T17:13:51.617Z,22.10
2018-09-16T17:16:20.066Z,22.10
2018-09-16T17:18:48.532Z,22.00
2018-09-16T17:21:17.023Z,22.00
2018-09-16T17:23:45.503Z,22.00
2018-09-16T17:26:13.972Z,21.90
2018-09-16T17:28:42.440Z,21.90
2018-09-16T17:31:10.870Z,21.90
2018-09-16T17:33:39.403Z,21.80
2018-09-16T17:36:07.928Z,21.80
2018-09-16T17:38:36.447Z,21.70
2018-09-16T17:41:04.922Z,21.70
2018-09-16T17:43:33.380Z,21.60
2018-09-16T17:46:01.919Z,21.60
2018-09-16T17:48:30.447Z,21.50
2018-09-16T17:50:58.996Z,21.40
2018-09-16T17:53:27.440Z,21.30
2018-09-16T17:56:02.372Z,21.20
2018-09-16T17:58:30.870Z,21.00
2018-09-16T18:00:59.465Z,20.90
2018-09-16T18:03:27.970Z,20.90
2018-09-16T18:05:56.481Z,20.80
2018-09-16T18:08:30.108Z,20.70
2018-09-16T18:10:58.738Z,20.60
2018-09-16T18:13:27.173Z,20.40
2018-09-16T18:15:55.672Z,20.30
2018-09-16T18:18:24.126Z,20.20
2018-09-16T18:20:52.666Z,20.10
2018-09-16T18:23:21.228Z,20.00
2018-09-16T18:25:49.689Z,19.90
2018-09-16T18:28:19.104Z,19.80
2018-09-16T18:30:47.708Z,19.70
2018-09-16T18:33:16.261Z,19.60
2018-09-16T18:35:44.723Z,19.50
2018-09-16T18:38:13.207Z,19.40
2018-09-16T18:40:41.743Z,19.30
2018-09-16T18:43:10.201Z,19.20
2018-09-16T18:45:38.669Z,19.10
2018-09-16T18:48:07.481Z,19.00
2018-09-16T18:50:35.974Z,18.90
2018-09-16T18:53:04.455Z,18.80
2018-09-16T18:55:33.015Z,18.80
2018-09-16T18:58:01.518Z,18.70
2018-09-16T19:00:29.980Z,18.60
2018-09-16T19:02:58.419Z,18.50
2018-09-16T19:05:26.905Z,18.50
2018-09-16T19:07:55.398Z,18.40
2018-09-16T19:10:23.878Z,18.30
2018-09-16T19:12:52.317Z,18.30
2018-09-16T19:15:21.202Z,18.20
2018-09-16T19:17:49.652Z,18.10
2018-09-16T19:20:18.106Z,18.00
2018-09-16T19:22:46.606Z,17.90
2018-09-16T19:25:15.098Z,17.90
2018-09-16T19:27:43.621Z,17.80
2018-09-16T19:30:12.197Z,17.70
2018-09-16T19:32:40.635Z,17.70
2018-09-16T19:35:09.123Z,17.60
2018-09-16T19:37:37.604Z,17.50
2018-09-16T19:40:06.161Z,17.50
2018-09-16T19:42:34.571Z,17.40
2018-09-16T19:45:03.102Z,17.30
2018-09-16T19:47:31.540Z,17.30
2018-09-16T19:50:00.022Z,17.20
2018-09-16T19:52:28.504Z,17.10
2018-09-16T19:54:56.960Z,17.10
2018-09-16T19:57:25.409Z,17.10
2018-09-16T19:59:53.950Z,17.00
2018-09-16T20:02:22.429Z,17.00
2018-09-16T20:04:50.929Z,16.90
2018-09-16T20:07:19.448Z,16.90
2018-09-16T20:09:47.878Z,17.00
2018-09-16T20:12:16.373Z,16.90
2018-09-16T20:14:44.862Z,16.90
2018-09-16T20:17:13.352Z,16.90
2018-09-16T20:19:41.795Z,16.80
2018-09-16T20:22:10.507Z,16.80
2018-09-16T20:24:39.073Z,16.70
2018-09-16T20:27:07.739Z,16.70
2018-09-16T20:29:36.259Z,16.70
2018-09-16T20:32:05.139Z,16.60
2018-09-16T20:34:33.613Z,16.60
2018-09-16T20:37:02.142Z,16.60
2018-09-16T20:39:30.588Z,16.50
2018-09-16T20:41:59.045Z,16.40
2018-09-16T20:44:27.519Z,16.40
2018-09-16T20:46:55.998Z,16.40
2018-09-16T20:49:24.506Z,16.40
2018-09-16T20:51:53.004Z,16.40
2018-09-16T20:54:21.510Z,16.40
2018-09-16T20:56:49.991Z,16.30
2018-09-16T20:59:18.572Z,16.20
2018-09-16T21:01:47.038Z,16.20
2018-09-16T21:04:15.514Z,16.10
2018-09-16T21:06:43.980Z,16.20
2018-09-16T21:09:13.037Z,16.10
2018-09-16T21:11:41.493Z,16.10
2018-09-16T21:14:09.995Z,16.10
2018-09-16T21:16:38.442Z,16.00
2018-09-16T21:19:06.882Z,16.00
2018-09-16T21:21:35.720Z,16.00
2018-09-16T21:24:04.196Z,16.00
2018-09-16T21:26:32.760Z,16.00
2018-09-16T21:29:01.145Z,16.00
2018-09-16T21:31:29.603Z,16.10
2018-09-16T21:33:58.126Z,16.10
2018-09-16T21:36:26.616Z,16.10
2018-09-16T21:38:55.098Z,16.10
2018-09-16T21:41:23.529Z,16.00
2018-09-16T21:43:52.026Z,16.00
2018-09-16T21:46:20.468Z,16.00
2018-09-16T21:48:48.901Z,16.00
2018-09-16T21:51:18.026Z,16.00
2018-09-16T21:53:46.580Z,16.00
2018-09-16T21:56:15.050Z,16.10
2018-09-16T21:58:43.522Z,16.00
2018-09-16T22:01:11.977Z,16.00
2018-09-16T22:03:40.434Z,16.00
2018-09-16T22:06:08.894Z,16.10
2018-09-16T22:08:37.439Z,16.00
2018-09-16T22:11:07.462Z,15.90
2018-09-16T22:13:35.916Z,15.90
2018-09-16T22:16:04.382Z,15.80
2018-09-16T22:18:32.928Z,15.80
2018-09-16T22:21:01.417Z,15.70
2018-09-16T22:23:29.866Z,15.70
2018-09-16T22:25:58.389Z,15.70
2018-09-16T22:28:26.816Z,15.70
2018-09-16T22:30:55.250Z,15.80
2018-09-16T22:33:23.730Z,15.80
2018-09-16T22:35:52.193Z,15.80
2018-09-16T22:38:20.652Z,15.70
2018-09-16T22:40:49.078Z,15.70
2018-09-16T22:43:17.564Z,15.70
2018-09-16T22:45:45.997Z,15.70
2018-09-16T22:48:14.433Z,15.60
2018-09-16T22:50:42.901Z,15.50
2018-09-16T22:53:11.347Z,15.40
2018-09-16T22:55:39.776Z,15.30
2018-09-16T22:58:08.271Z,15.30
2018-09-16T23:00:36.737Z,15.20
2018-09-16T23:03:05.281Z,15.20
2018-09-16T23:05:33.710Z,15.10
2018-09-16T23:08:02.166Z,15.10
2018-09-16T23:10:30.579Z,15.10
2018-09-16T23:12:59.039Z,15.10
2018-09-16T23:15:27.509Z,15.10
2018-09-16T23:17:55.957Z,15.10
2018-09-16T23:20:24.399Z,15.10
2018-09-16T23:22:52.825Z,15.10
2018-09-16T23:25:21.277Z,15.10
2018-09-16T23:27:49.802Z,15.10
2018-09-16T23:30:18.279Z,15.10
2018-09-16T23:32:47.203Z,15.10
2018-09-16T23:35:15.667Z,15.10
2018-09-16T23:37:44.116Z,15.10
2018-09-16T23:40:12.555Z,15.20
2018-09-16T23:42:41.011Z,15.20
2018-09-16T23:45:09.538Z,15.20
2018-09-16T23:47:37.967Z,15.10
2018-09-16T23:50:06.439Z,15.00
2018-09-16T23:52:34.975Z,15.00
2018-09-16T23:55:03.527Z,15.00
2018-09-16T23:57:31.981Z,15.00
